sensor_id;sensor_type;location;lat;lon;timestamp;P1;P2;P0
50041;PMS7003;44598;51.606;5.912;2023-06-14T00:09:19;5.17;6.99;5.02
50041;PMS7003;44598;51.606;5.912;2023-06-14T00:22:39;4.81;7.53;5.46
50041;PMS7003;44598;51.606;5.912;2023-06-14T01:02:39;3.85;6.44;4.7
50041;PMS7003;44598;51.606;5.912;2023-06-14T01:15:59;3.12;6.11;4.59
50041;PMS7003;44598;51.606;5.912;2023-06-14T01:29:18;3.36;6.33;4.26
50041;PMS7003;44598;51.606;5.912;2023-06-14T01:42:38;3.73;6.44;4.15
50041;PMS7003;44598;51.606;5.912;2023-06-14T01:55:58;2.88;5.9;4.26
50041;PMS7003;44598;51.606;5.912;2023-06-14T02:09:18;2.88;5.79;4.15
50041;PMS7003;44598;51.606;5.912;2023-06-14T02:22:38;3.0;5.9;4.37
50041;PMS7003;44598;51.606;5.912;2023-06-14T02:35:58;3.97;5.79;4.15
50041;PMS7003;44598;51.606;5.912;2023-06-14T03:02:38;3.0;6.0;4.26
50041;PMS7003;44598;51.606;5.912;2023-06-14T03:15:57;3.48;6.33;4.04
50041;PMS7003;44598;51.606;5.912;2023-06-14T03:29:17;2.88;5.68;4.04
50041;PMS7003;44598;51.606;5.912;2023-06-14T03:42:37;3.48;5.57;4.04
50041;PMS7003;44598;51.606;5.912;2023-06-14T03:55:57;2.64;5.57;4.04
50041;PMS7003;44598;51.606;5.912;2023-06-14T04:09:17;3.73;6.0;4.26
50041;PMS7003;44598;51.606;5.912;2023-06-14T04:22:37;2.4;5.13;3.61
50041;PMS7003;44598;51.606;5.912;2023-06-14T04:49:17;2.52;5.24;3.93
50041;PMS7003;44598;51.606;5.912;2023-06-14T05:02:36;2.88;5.35;3.71
50041;PMS7003;44598;51.606;5.912;2023-06-14T05:15:56;5.17;6.66;4.37
50041;PMS7003;44598;51.606;5.912;2023-06-14T05:29:16;3.0;5.9;3.82
50041;PMS7003;44598;51.606;5.912;2023-06-14T05:42:39;1.92;5.02;3.5
50041;PMS7003;44598;51.606;5.912;2023-06-14T06:09:18;1.68;4.48;3.17
50041;PMS7003;44598;51.606;5.912;2023-06-14T06:49:18;1.68;4.26;3.39
50041;PMS7003;44598;51.606;5.912;2023-06-14T07:02:38;0.72;3.93;2.95
50041;PMS7003;44598;51.606;5.912;2023-06-14T07:15:58;1.68;4.48;3.17
50041;PMS7003;44598;51.606;5.912;2023-06-14T07:29:18;0.48;3.71;2.84
50041;PMS7003;44598;51.606;5.912;2023-06-14T07:42:37;0.12;3.17;2.52
50041;PMS7003;44598;51.606;5.912;2023-06-14T07:55:57;1.08;3.17;2.19
50041;PMS7003;44598;51.606;5.912;2023-06-14T08:35:57;0.01;1.75;1.32
50041;PMS7003;44598;51.606;5.912;2023-06-14T08:49:17;0.01;1.54;
50041;PMS7003;44598;51.606;5.912;2023-06-14T09:02:37;0.01;1.86;1.32
50041;PMS7003;44598;51.606;5.912;2023-06-14T09:15:56;0.01;1.97;1.43
50041;PMS7003;44598;51.606;5.912;2023-06-14T09:29:16;0.01;1.97;1.54
50041;PMS7003;44598;51.606;5.912;2023-06-14T09:42:36;0.01;2.3;1.75
50041;PMS7003;44598;51.606;5.912;2023-06-14T10:22:36;0.01;2.84;1.75
50041;PMS7003;44598;51.606;5.912;2023-06-14T11:02:35;0.01;1.86;1.21
50041;PMS7003;44598;51.606;5.912;2023-06-14T11:15:55;0.01;1.75;1.32
50041;PMS7003;44598;51.606;5.912;2023-06-14T11:29:15;0.01;2.08;1.64
50041;PMS7003;44598;51.606;5.912;2023-06-14T11:42:35;0.01;1.97;1.43
50041;PMS7003;44598;51.606;5.912;2023-06-14T11:55:55;0.01;1.86;1.43
50041;PMS7003;44598;51.606;5.912;2023-06-14T12:22:34;0.01;1.75;1.21
50041;PMS7003;44598;51.606;5.912;2023-06-14T12:35:54;0.01;1.64;1.21
50041;PMS7003;44598;51.606;5.912;2023-06-14T12:49:14;0.01;1.54;
50041;PMS7003;44598;51.606;5.912;2023-06-14T13:02:34;0.01;1.21;
50041;PMS7003;44598;51.606;5.912;2023-06-14T13:15:54;0.01;1.21;
50041;PMS7003;44598;51.606;5.912;2023-06-14T13:29:14;;;
50041;PMS7003;44598;51.606;5.912;2023-06-14T13:42:33;0.01;1.21;
50041;PMS7003;44598;51.606;5.912;2023-06-14T13:55:53;0.01;1.21;
50041;PMS7003;44598;51.606;5.912;2023-06-14T14:22:33;0.01;1.32;1.21
50041;PMS7003;44598;51.606;5.912;2023-06-14T14:35:53;0.01;1.21;
50041;PMS7003;44598;51.606;5.912;2023-06-14T14:49:13;0.01;1.43;1.32
50041;PMS7003;44598;51.606;5.912;2023-06-14T15:02:33;0.01;1.21;
50041;PMS7003;44598;51.606;5.912;2023-06-14T15:15:52;0.01;1.54;1.21
50041;PMS7003;44598;51.606;5.912;2023-06-14T15:42:32;0.01;1.64;1.43
50041;PMS7003;44598;51.606;5.912;2023-06-14T15:55:52;0.01;2.3;1.86
50041;PMS7003;44598;51.606;5.912;2023-06-14T16:09:12;0.01;2.08;1.86
50041;PMS7003;44598;51.606;5.912;2023-06-14T16:22:32;0.01;1.97;1.75
50041;PMS7003;44598;51.606;5.912;2023-06-14T16:35:52;0.12;2.41;1.97
50041;PMS7003;44598;51.606;5.912;2023-06-14T16:49:12;0.01;2.08;1.86
50041;PMS7003;44598;51.606;5.912;2023-06-14T17:02:31;0.01;2.62;2.19
50041;PMS7003;44598;51.606;5.912;2023-06-14T17:15:51;0.01;2.3;2.08
50041;PMS7003;44598;51.606;5.912;2023-06-14T17:29:11;0.01;2.73;2.3
50041;PMS7003;44598;51.606;5.912;2023-06-14T17:42:31;0.12;2.95;2.3
50041;PMS7003;44598;51.606;5.912;2023-06-14T17:55:51;0.01;2.84;2.41
50041;PMS7003;44598;51.606;5.912;2023-06-14T18:09:11;1.32;3.39;2.62
50041;PMS7003;44598;51.606;5.912;2023-06-14T18:22:30;0.01;3.06;2.62
50041;PMS7003;44598;51.606;5.912;2023-06-14T18:35:50;0.12;3.17;2.73
50041;PMS7003;44598;51.606;5.912;2023-06-14T18:49:10;0.48;3.17;2.41
50041;PMS7003;44598;51.606;5.912;2023-06-14T19:15:50;0.24;3.28;2.73
50041;PMS7003;44598;51.606;5.912;2023-06-14T19:29:10;0.36;3.5;2.62
50041;PMS7003;44598;51.606;5.912;2023-06-14T19:42:30;0.24;3.5;2.73
50041;PMS7003;44598;51.606;5.912;2023-06-14T19:55:50;1.2;4.37;2.84
50041;PMS7003;44598;51.606;5.912;2023-06-14T20:09:09;2.52;3.93;3.28
50041;PMS7003;44598;51.606;5.912;2023-06-14T20:35:49;0.72;3.82;3.17
50041;PMS7003;44598;51.606;5.912;2023-06-14T20:49:09;0.84;4.04;2.95
50041;PMS7003;44598;51.606;5.912;2023-06-14T21:02:29;1.08;4.26;3.17
50041;PMS7003;44598;51.606;5.912;2023-06-14T21:29:09;2.52;4.04;3.06
50041;PMS7003;44598;51.606;5.912;2023-06-14T21:42:28;1.8;4.04;3.39
50041;PMS7003;44598;51.606;5.912;2023-06-14T22:09:08;1.56;4.15;3.28
50041;PMS7003;44598;51.606;5.912;2023-06-14T22:35:48;1.08;4.04;3.39
50041;PMS7003;44598;51.606;5.912;2023-06-14T22:49:08;2.16;4.7;3.5
50041;PMS7003;44598;51.606;5.912;2023-06-14T23:15:47;1.56;4.48;3.28
50041;PMS7003;44598;51.606;5.912;2023-06-14T23:29:07;1.92;4.8;3.82
50041;PMS7003;44598;51.606;5.912;2023-06-14T23:42:27;2.52;5.24;4.37
50041;PMS7003;44598;51.606;5.912;2023-06-14T23:55:47;3.24;5.79;4.7
